createdAt,value
2023-04-22T00:00:09.180Z,101024.81
2023-04-22T00:02:37.298Z,101014.59
2023-04-22T00:05:04.962Z,101012.94
2023-04-22T00:07:31.996Z,101004.34
2023-04-22T00:10:00.305Z,101004.78
2023-04-22T00:12:27.247Z,100997.84
2023-04-22T00:14:54.137Z,100997.25
2023-04-22T00:17:21.088Z,100994.78
2023-04-22T00:19:48.078Z,100990.50
2023-04-22T00:22:15.083Z,100989.09
2023-04-22T00:24:42.404Z,100987.25
2023-04-22T00:27:11.418Z,100981.09
2023-04-22T00:29:39.472Z,100969.84
2023-04-22T00:32:06.728Z,100974.56
2023-04-22T00:34:33.585Z,100966.78
2023-04-22T00:37:01.262Z,100960.88
2023-04-22T00:39:28.238Z,100955.78
2023-04-22T00:41:55.601Z,100959.47
2023-04-22T00:44:26.307Z,100949.22
2023-04-22T00:46:53.376Z,100954.19
2023-04-22T00:49:20.944Z,100957.88
2023-04-22T00:51:47.875Z,100953.59
2023-04-22T00:54:14.734Z,100955.44
2023-04-22T00:56:41.913Z,100949.31
2023-04-22T00:59:10.718Z,100947.63
2023-04-22T01:01:39.397Z,100945.78
2023-04-22T01:04:06.749Z,100938.25
2023-04-22T01:06:35.309Z,100933.72
2023-04-22T01:09:02.554Z,100938.25
2023-04-22T01:11:29.829Z,100938.25
2023-04-22T01:13:56.874Z,100946.44
2023-04-22T01:16:25.843Z,100944.00
2023-04-22T01:18:54.195Z,100939.50
2023-04-22T01:21:21.328Z,100944.84
2023-04-22T01:23:49.697Z,100940.28
2023-04-22T01:26:16.685Z,100933.94
2023-04-22T01:28:43.899Z,100945.19
2023-04-22T01:31:10.927Z,100930.69
2023-04-22T01:33:38.592Z,100934.38
2023-04-22T01:36:06.129Z,100943.41
2023-04-22T01:38:34.407Z,100924.38
2023-04-22T01:41:03.007Z,100928.88
2023-04-22T01:43:30.828Z,100931.78
2023-04-22T01:45:58.092Z,100929.69
2023-04-22T01:48:25.090Z,100934.22
2023-04-22T01:50:53.040Z,100926.81
2023-04-22T01:53:20.132Z,100927.63
2023-04-22T01:55:47.814Z,100931.72
2023-04-22T01:58:16.138Z,100935.19
2023-04-22T02:00:43.208Z,100925.13
2023-04-22T02:03:10.573Z,100930.84
2023-04-22T02:05:38.134Z,100923.47
2023-04-22T02:08:05.370Z,100921.38
2023-04-22T02:10:32.397Z,100927.75
2023-04-22T02:12:59.382Z,100925.06
2023-04-22T02:15:27.622Z,100925.91
2023-04-22T02:17:54.768Z,100932.06
2023-04-22T02:20:21.662Z,100928.78
2023-04-22T02:22:48.738Z,100929.63
2023-04-22T02:29:21.557Z,100932.56
2023-04-22T02:31:50.305Z,100929.53
2023-04-22T02:34:17.296Z,100925.50
2023-04-22T02:36:44.219Z,100929.25
2023-04-22T02:39:11.513Z,100924.38
2023-04-22T02:41:38.429Z,100914.59
2023-04-22T02:44:05.598Z,100918.28
2023-04-22T02:46:32.504Z,100917.44
2023-04-22T02:49:00.823Z,100917.28
2023-04-22T02:51:28.219Z,100909.78
2023-04-22T02:53:55.101Z,100906.97
2023-04-22T02:56:21.992Z,100915.81
2023-04-22T02:58:48.931Z,100904.50
2023-04-22T03:01:15.901Z,100898.59
2023-04-22T03:03:43.047Z,100896.00
2023-04-22T03:06:11.410Z,100900.50
2023-04-22T03:08:38.287Z,100893.13
2023-04-22T03:11:05.657Z,100893.81
2023-04-22T03:13:32.618Z,100886.44
2023-04-22T03:15:59.540Z,100888.66
2023-04-22T03:18:26.459Z,100887.88
2023-04-22T03:20:53.349Z,100887.44
2023-04-22T03:23:21.662Z,100883.78
2023-04-22T03:25:48.616Z,100884.38
2023-04-22T03:28:15.564Z,100887.03
2023-04-22T03:30:42.465Z,100879.69
2023-04-22T03:33:09.497Z,100880.94
2023-04-22T03:35:36.383Z,100877.47
2023-04-22T03:38:03.310Z,100875.63
2023-04-22T03:40:31.554Z,100880.13
2023-04-22T03:42:58.489Z,100879.91
2023-04-22T03:45:25.493Z,100878.28
2023-04-22T03:47:52.658Z,100873.97
2023-04-22T03:50:19.760Z,100876.22
2023-04-22T03:52:46.653Z,100881.38
2023-04-22T03:55:13.532Z,100883.19
2023-04-22T03:57:41.797Z,100881.78
2023-04-22T04:00:10.006Z,100880.16
2023-04-22T04:02:37.067Z,100878.53
2023-04-22T04:05:05.054Z,100872.19
2023-04-22T04:07:32.044Z,100871.59
2023-04-22T04:09:58.935Z,100867.88
2023-04-22T04:12:25.810Z,100858.47
2023-04-22T04:14:54.003Z,100868.66
2023-04-22T04:17:21.662Z,100862.91
2023-04-22T04:19:48.716Z,100868.22
2023-04-22T04:22:15.639Z,100871.75
2023-04-22T04:24:42.615Z,100873.22
2023-04-22T04:27:09.850Z,100861.38
2023-04-22T04:29:36.781Z,100861.97
2023-04-22T04:32:05.416Z,100853.00
2023-04-22T04:34:34.277Z,100856.06
2023-04-22T04:37:01.233Z,100852.78
2023-04-22T04:39:28.535Z,100852.41
2023-04-22T04:41:55.617Z,100858.63
2023-04-22T04:44:22.807Z,100847.81
2023-04-22T04:46:50.522Z,100852.34
2023-04-22T04:49:18.755Z,100859.09
2023-04-22T04:51:45.625Z,100848.47
2023-04-22T04:54:12.511Z,100848.91
2023-04-22T04:56:39.401Z,100840.31
2023-04-22T04:59:06.307Z,100849.69
2023-04-22T05:01:33.315Z,100839.47
2023-04-22T05:04:00.405Z,100837.19
2023-04-22T05:06:28.690Z,100834.53
2023-04-22T05:08:55.594Z,100830.03
2023-04-22T05:11:22.622Z,100832.09
2023-04-22T05:13:49.500Z,100833.75
2023-04-22T05:16:16.602Z,100832.47
2023-04-22T05:18:43.478Z,100825.25
2023-04-22T05:21:10.398Z,100830.75
2023-04-22T05:23:39.415Z,100837.25
2023-04-22T05:26:06.356Z,100834.34
2023-04-22T05:28:33.285Z,100832.28
2023-04-22T05:31:00.182Z,100842.03
2023-04-22T05:33:27.077Z,100835.06
2023-04-22T05:35:54.038Z,100832.94
2023-04-22T05:38:20.969Z,100832.75
2023-04-22T05:40:49.158Z,100835.00
2023-04-22T05:43:16.341Z,100831.31
2023-04-22T05:45:43.290Z,100830.09
2023-04-22T05:48:10.269Z,100830.72
2023-04-22T05:50:37.185Z,100840.31
2023-04-22T05:53:04.099Z,100834.97
2023-04-22T05:55:31.397Z,100839.19
2023-04-22T05:57:59.749Z,100838.94
2023-04-22T06:00:26.705Z,100852.00
2023-04-22T06:02:53.769Z,100839.56
2023-04-22T06:05:20.870Z,100842.69
2023-04-22T06:07:47.865Z,100845.09
2023-04-22T06:10:14.748Z,100830.44
2023-04-22T06:12:41.632Z,100829.69
2023-04-22T06:15:11.557Z,100832.66
2023-04-22T06:17:39.269Z,100836.09
2023-04-22T06:20:07.783Z,100834.53
2023-04-22T06:22:34.662Z,100839.97
2023-04-22T06:25:01.521Z,100846.34
2023-04-22T06:27:28.565Z,100837.53
2023-04-22T06:29:55.460Z,100834.94
2023-04-22T06:32:23.628Z,100829.50
2023-04-22T06:34:50.522Z,100828.47
2023-04-22T06:37:17.991Z,100836.38
2023-04-22T06:39:44.919Z,100836.75
2023-04-22T06:42:11.853Z,100830.16
2023-04-22T06:44:38.718Z,100829.69
2023-04-22T06:47:05.708Z,100832.00
2023-04-22T06:49:35.545Z,100830.84
2023-04-22T06:52:02.476Z,100830.34
2023-04-22T06:54:29.433Z,100832.56
2023-04-22T06:56:56.521Z,100823.06
2023-04-22T06:59:23.456Z,100819.13
2023-04-22T07:01:50.381Z,100817.72
2023-04-22T07:04:17.294Z,100817.97
2023-04-22T07:06:46.161Z,100814.72
2023-04-22T07:09:13.108Z,100805.22
2023-04-22T07:11:39.994Z,100809.28
2023-04-22T07:14:06.976Z,100804.06
2023-04-22T07:16:33.932Z,100804.25
2023-04-22T07:19:00.885Z,100804.53
2023-04-22T07:21:27.752Z,100799.09
2023-04-22T07:23:56.000Z,100814.47
2023-04-22T07:26:22.988Z,100810.19
2023-04-22T07:28:50.233Z,100821.56
2023-04-22T07:31:17.260Z,100830.09
2023-04-22T07:33:44.204Z,100811.63
2023-04-22T07:36:11.265Z,100814.84
2023-04-22T07:38:38.241Z,100826.44
2023-04-22T07:41:06.710Z,100825.03
2023-04-22T07:43:33.673Z,100826.16
2023-04-22T07:46:00.804Z,100828.81
2023-04-22T07:48:27.853Z,100821.81
2023-04-22T07:50:54.755Z,100823.72
2023-04-22T07:53:21.714Z,100833.09
2023-04-22T07:55:49.624Z,100822.47
2023-04-22T07:58:17.931Z,100830.38
2023-04-22T08:00:45.058Z,100829.56
2023-04-22T08:03:12.261Z,100827.84
2023-04-22T08:05:39.465Z,100827.28
2023-04-22T08:08:07.264Z,100826.94
2023-04-22T08:10:34.190Z,100822.00
2023-04-22T08:13:01.413Z,100819.91
2023-04-22T08:15:30.487Z,100817.31
2023-04-22T08:17:57.582Z,100810.53
2023-04-22T08:20:25.734Z,100812.00
2023-04-22T08:22:58.016Z,100814.38
2023-04-22T08:25:25.086Z,100801.91
2023-04-22T08:27:52.114Z,100801.53
2023-04-22T08:30:19.727Z,100802.63
2023-04-22T08:32:48.086Z,100799.53
2023-04-22T08:35:15.079Z,100803.53
2023-04-22T08:37:42.137Z,100799.16
2023-04-22T08:40:10.088Z,100795.09
2023-04-22T08:42:38.039Z,100790.13
2023-04-22T08:45:06.538Z,100797.16
2023-04-22T08:47:34.954Z,100784.28
2023-04-22T08:50:06.174Z,100779.81
2023-04-22T08:52:33.323Z,100778.75
2023-04-22T08:55:00.690Z,100773.19
2023-04-22T08:57:29.517Z,100765.59
2023-04-22T08:59:56.972Z,100755.16
2023-04-22T09:02:25.865Z,100762.88
2023-04-22T09:04:56.300Z,100757.34
2023-04-22T09:07:28.357Z,100746.72
2023-04-22T09:09:56.371Z,100756.38
2023-04-22T09:12:25.267Z,100753.81
2023-04-22T09:14:53.026Z,100746.28
2023-04-22T09:17:33.108Z,100748.63
2023-04-22T09:20:02.161Z,100750.69
2023-04-22T09:22:39.802Z,100748.16
2023-04-22T09:25:15.976Z,100748.00
2023-04-22T09:27:49.614Z,100756.59
2023-04-22T09:30:19.922Z,100755.22
2023-04-22T09:32:54.982Z,100754.97
2023-04-22T09:35:31.600Z,100756.69
2023-04-22T09:38:02.293Z,100756.84
2023-04-22T09:40:31.552Z,100746.47
2023-04-22T09:43:03.140Z,100755.34
2023-04-22T09:45:32.704Z,100748.94
2023-04-22T09:48:06.155Z,100748.03
2023-04-22T09:50:33.229Z,100748.25
2023-04-22T09:53:05.447Z,100746.53
2023-04-22T09:55:37.669Z,100732.53
2023-04-22T09:58:08.736Z,100731.72
2023-04-22T10:00:40.536Z,100733.19
2023-04-22T10:03:09.831Z,100732.25
2023-04-22T10:05:38.341Z,100728.34
2023-04-22T10:08:11.870Z,100729.00
2023-04-22T10:10:39.832Z,100728.66
2023-04-22T10:13:07.885Z,100727.16
2023-04-22T10:15:39.250Z,100721.56
2023-04-22T10:18:12.836Z,100717.41
2023-04-22T10:20:42.938Z,100714.78
2023-04-22T10:23:20.742Z,100707.75
2023-04-22T10:25:49.172Z,100716.56
2023-04-22T10:28:20.917Z,100702.44
2023-04-22T10:30:49.096Z,100704.44
2023-04-22T10:33:37.039Z,100698.63
2023-04-22T10:36:19.065Z,100701.47
2023-04-22T10:39:18.762Z,100702.47
2023-04-22T10:41:57.794Z,100703.25
2023-04-22T10:44:30.625Z,100704.78
2023-04-22T10:47:00.154Z,100704.09
2023-04-22T10:49:31.859Z,100701.66
2023-04-22T10:52:01.001Z,100695.81
2023-04-22T10:54:58.835Z,100695.81
2023-04-22T10:57:37.651Z,100679.81
2023-04-22T11:00:25.082Z,100672.91
2023-04-22T11:03:06.200Z,100670.38
2023-04-22T11:05:35.562Z,100669.69
2023-04-22T11:08:07.289Z,100675.44
2023-04-22T11:10:44.062Z,100666.13
2023-04-22T11:13:15.378Z,100660.09
2023-04-22T11:15:44.868Z,100666.72
2023-04-22T11:18:17.977Z,100650.97
2023-04-22T11:20:45.537Z,100642.06
2023-04-22T11:23:16.819Z,100635.03
2023-04-22T11:25:45.153Z,100642.75
2023-04-22T11:28:12.317Z,100632.47
2023-04-22T11:30:39.378Z,100625.72
2023-04-22T11:33:06.364Z,100627.22
2023-04-22T11:35:35.216Z,100624.41
2023-04-22T11:38:04.870Z,100623.84
2023-04-22T11:40:37.777Z,100626.03
2023-04-22T11:43:09.368Z,100638.69
2023-04-22T11:45:38.865Z,100617.72
2023-04-22T11:48:08.462Z,100629.00
2023-04-22T11:50:37.707Z,100621.56
2023-04-22T11:53:13.873Z,100615.47
2023-04-22T11:55:42.701Z,100600.94
2023-04-22T11:58:14.749Z,100597.16
2023-04-22T12:00:44.906Z,100602.34
2023-04-22T12:03:15.855Z,100605.09
2023-04-22T12:05:46.154Z,100591.09
2023-04-22T12:08:16.221Z,100576.88
2023-04-22T12:10:45.894Z,100607.47
2023-04-22T12:13:20.844Z,100587.28
2023-04-22T12:15:48.873Z,100587.50
2023-04-22T12:18:15.860Z,100583.31
2023-04-22T12:20:43.100Z,100587.59
2023-04-22T12:23:14.845Z,100582.31
2023-04-22T12:25:43.493Z,100585.22
2023-04-22T12:28:11.333Z,100572.28
2023-04-22T12:30:39.565Z,100578.19
2023-04-22T12:33:06.617Z,100589.91
2023-04-22T12:35:33.785Z,100585.72
2023-04-22T12:38:01.659Z,100579.06
2023-04-22T12:40:29.074Z,100575.53
2023-04-22T12:42:56.065Z,100571.13
2023-04-22T12:45:23.189Z,100574.03
2023-04-22T12:47:53.746Z,100576.59
2023-04-22T12:50:21.344Z,100581.56
2023-04-22T12:52:51.566Z,100575.63
2023-04-22T12:55:19.710Z,100579.34
2023-04-22T12:57:50.022Z,100571.34
2023-04-22T13:00:17.653Z,100569.06
2023-04-22T13:02:46.608Z,100565.72
2023-04-22T13:05:16.203Z,100563.63
2023-04-22T13:07:45.421Z,100554.16
2023-04-22T13:10:16.874Z,100546.59
2023-04-22T13:12:44.449Z,100539.53
2023-04-22T13:15:12.887Z,100532.84
2023-04-22T13:17:40.591Z,100530.78
2023-04-22T13:20:09.488Z,100529.03
2023-04-22T13:22:38.652Z,100530.91
2023-04-22T13:25:07.224Z,100528.47
2023-04-22T13:27:34.661Z,100528.78
2023-04-22T13:30:01.838Z,100532.06
2023-04-22T13:32:29.177Z,100517.00
2023-04-22T13:34:56.086Z,100508.03
2023-04-22T13:37:23.037Z,100516.69
2023-04-22T13:39:51.250Z,100499.88
2023-04-22T13:42:18.684Z,100500.06
2023-04-22T13:44:45.698Z,100492.34
2023-04-22T13:47:12.881Z,100492.41
2023-04-22T13:49:40.023Z,100498.13
2023-04-22T13:52:07.190Z,100488.91
2023-04-22T13:54:34.120Z,100492.88
2023-04-22T13:57:03.217Z,100485.19
2023-04-22T13:59:31.413Z,100474.69
2023-04-22T14:01:58.408Z,100466.63
2023-04-22T14:04:25.585Z,100471.91
2023-04-22T14:06:52.723Z,100466.69
2023-04-22T14:09:20.090Z,100459.81
2023-04-22T14:11:47.215Z,100464.66
2023-04-22T14:14:15.896Z,100453.66
2023-04-22T14:16:43.421Z,100457.41
2023-04-22T14:19:11.363Z,100452.94
2023-04-22T14:21:38.385Z,100449.09
2023-04-22T14:24:05.832Z,100435.47
2023-04-22T14:26:32.926Z,100434.03
2023-04-22T14:28:59.945Z,100436.25
2023-04-22T14:31:28.268Z,100433.09
2023-04-22T14:33:55.901Z,100435.00
2023-04-22T14:36:27.521Z,100429.16
2023-04-22T14:38:54.402Z,100429.66
2023-04-22T14:41:21.508Z,100435.91
2023-04-22T14:43:48.530Z,100427.53
2023-04-22T14:46:15.623Z,100426.84
2023-04-22T14:48:44.702Z,100429.91
2023-04-22T14:51:11.839Z,100432.53
2023-04-22T14:53:38.888Z,100440.34
2023-04-22T14:56:05.882Z,100423.25
2023-04-22T14:58:32.805Z,100428.59
2023-04-22T15:01:00.113Z,100414.34
2023-04-22T15:03:27.699Z,100423.19
2023-04-22T15:05:56.024Z,100419.19
2023-04-22T15:08:25.114Z,100418.81
2023-04-22T15:10:52.337Z,100411.44
2023-04-22T15:13:19.795Z,100411.16
2023-04-22T15:15:47.012Z,100404.81
2023-04-22T15:18:14.089Z,100398.41
2023-04-22T15:20:41.675Z,100401.63
2023-04-22T15:23:09.984Z,100402.31
2023-04-22T15:25:37.650Z,100389.47
2023-04-22T15:28:04.644Z,100397.97
2023-04-22T15:30:31.960Z,100390.34
2023-04-22T15:32:59.003Z,100378.63
2023-04-22T15:35:25.982Z,100383.25
2023-04-22T15:37:54.053Z,100382.94
2023-04-22T15:40:22.342Z,100371.56
2023-04-22T15:42:49.243Z,100368.53
2023-04-22T15:45:16.295Z,100370.25
2023-04-22T15:47:43.275Z,100362.53
2023-04-22T15:50:11.197Z,100369.75
2023-04-22T15:52:39.101Z,100357.28
2023-04-22T15:55:07.742Z,100354.44
2023-04-22T15:57:36.298Z,100359.06
2023-04-22T16:00:14.158Z,100353.09
2023-04-22T16:02:44.416Z,100354.19
2023-04-22T16:05:12.611Z,100345.28
2023-04-22T16:07:40.175Z,100355.81
2023-04-22T16:10:09.548Z,100343.00
2023-04-22T16:12:37.796Z,100349.28
2023-04-22T16:15:07.145Z,100347.72
2023-04-22T16:17:34.528Z,100353.97
2023-04-22T16:20:01.728Z,100343.16
2023-04-22T16:22:28.770Z,100340.53
2023-04-22T16:24:55.721Z,100344.41
2023-04-22T16:27:22.682Z,100338.56
2023-04-22T16:29:50.858Z,100337.38
2023-04-22T16:32:17.777Z,100334.19
2023-04-22T16:34:44.826Z,100331.22
2023-04-22T16:37:11.792Z,100329.63
2023-04-22T16:39:38.858Z,100326.03
2023-04-22T16:42:06.528Z,100329.56
2023-04-22T16:44:33.436Z,100324.69
2023-04-22T16:47:01.763Z,100332.44
2023-04-22T16:49:28.664Z,100332.00
2023-04-22T16:51:55.583Z,100328.47
2023-04-22T16:54:22.504Z,100329.88
2023-04-22T16:56:49.387Z,100331.41
2023-04-22T16:59:16.303Z,100330.59
2023-04-22T17:01:43.342Z,100321.16
2023-04-22T17:04:12.103Z,100322.88
2023-04-22T17:06:40.700Z,100325.19
2023-04-22T17:09:09.078Z,100327.81
2023-04-22T17:11:36.044Z,100328.91
2023-04-22T17:14:03.377Z,100327.59
2023-04-22T17:16:30.590Z,100328.19
2023-04-22T17:18:57.527Z,100333.91
2023-04-22T17:21:26.987Z,100329.09
2023-04-22T17:23:54.037Z,100336.41
2023-04-22T17:26:21.316Z,100335.31
2023-04-22T17:28:48.319Z,100325.81
2023-04-22T17:31:15.854Z,100337.38
2023-04-22T17:33:43.076Z,100339.47
2023-04-22T17:36:10.035Z,100344.66
2023-04-22T17:38:38.321Z,100340.53
2023-04-22T17:41:05.371Z,100341.53
2023-04-22T17:43:32.305Z,100340.28
2023-04-22T17:45:59.214Z,100337.66
2023-04-22T17:48:26.271Z,100339.88
2023-04-22T17:50:53.250Z,100342.88
2023-04-22T17:53:20.217Z,100353.38
2023-04-22T17:55:48.410Z,100377.91
2023-04-22T17:58:15.299Z,100394.56
2023-04-22T18:00:42.294Z,100425.38
2023-04-22T18:03:09.369Z,100423.16
2023-04-22T18:05:42.870Z,100433.81
2023-04-22T18:08:10.757Z,100451.88
2023-04-22T18:10:38.789Z,100441.63
2023-04-22T18:13:07.389Z,100445.78
2023-04-22T18:15:34.391Z,100446.97
2023-04-22T18:18:01.319Z,100458.38
2023-04-22T18:20:28.500Z,100464.31
2023-04-22T18:22:56.431Z,100472.44
2023-04-22T18:25:24.620Z,100464.91
2023-04-22T18:27:55.001Z,100470.34
2023-04-22T18:30:26.485Z,100479.22
2023-04-22T18:32:53.643Z,100465.50
2023-04-22T18:35:21.052Z,100486.44
2023-04-22T18:37:48.138Z,100482.94
2023-04-22T18:40:17.197Z,100492.06
2023-04-22T18:42:45.099Z,100499.81
2023-04-22T18:45:12.412Z,100506.56
2023-04-22T18:47:41.177Z,100511.66
2023-04-22T18:50:08.845Z,100511.38
2023-04-22T18:52:36.477Z,100519.69
2023-04-22T18:55:04.477Z,100523.47
2023-04-22T18:57:32.528Z,100522.88
2023-04-22T18:59:59.700Z,100519.09
2023-04-22T19:02:27.775Z,100519.06
2023-04-22T19:04:56.806Z,100527.66
2023-04-22T19:07:23.832Z,100523.59
2023-04-22T19:09:50.726Z,100526.25
2023-04-22T19:12:19.389Z,100527.28
2023-04-22T19:14:47.907Z,100524.31
2023-04-22T19:17:15.049Z,100534.78
2023-04-22T19:19:42.269Z,100515.22
2023-04-22T19:22:12.262Z,100514.09
2023-04-22T19:24:39.762Z,100509.28
2023-04-22T19:27:12.116Z,100498.78
2023-04-22T19:29:39.752Z,100509.78
2023-04-22T19:32:07.403Z,100501.97
2023-04-22T19:34:34.306Z,100496.88
2023-04-22T19:37:02.835Z,100499.56
2023-04-22T19:39:31.312Z,100507.63
2023-04-22T19:41:58.452Z,100508.13
2023-04-22T19:44:25.602Z,100499.00
2023-04-22T19:46:52.946Z,100491.19
2023-04-22T19:49:21.356Z,100492.50
2023-04-22T19:51:49.395Z,100487.94
2023-04-22T19:54:20.653Z,100492.00
2023-04-22T19:56:49.911Z,100496.28
2023-04-22T19:59:17.325Z,100497.34
2023-04-22T20:01:45.389Z,100498.69
2023-04-22T20:04:13.366Z,100500.00
2023-04-22T20:06:44.688Z,100500.53
2023-04-22T20:09:13.032Z,100496.22
2023-04-22T20:11:41.334Z,100504.78
2023-04-22T20:14:10.043Z,100504.78
2023-04-22T20:16:37.949Z,100508.03
2023-04-22T20:19:05.150Z,100503.47
2023-04-22T20:21:34.408Z,100508.84
2023-04-22T20:24:04.374Z,100513.94
2023-04-22T20:26:32.352Z,100517.44
2023-04-22T20:29:02.499Z,100524.66
2023-04-22T20:31:31.152Z,100519.84
2023-04-22T20:33:58.337Z,100519.84
2023-04-22T20:36:26.361Z,100523.63
2023-04-22T20:38:56.124Z,100517.94
2023-04-22T20:41:24.458Z,100524.13
2023-04-22T20:43:51.648Z,100521.38
2023-04-22T20:46:20.749Z,100525.94
2023-04-22T20:48:50.451Z,100518.16
2023-04-22T20:51:17.375Z,100519.69
2023-04-22T20:53:45.227Z,100522.84
2023-04-22T20:56:12.331Z,100517.41
2023-04-22T20:58:39.430Z,100517.31
2023-04-22T21:01:08.725Z,100521.59
2023-04-22T21:03:39.094Z,100519.88
2023-04-22T21:06:08.659Z,100515.03
2023-04-22T21:08:36.754Z,100514.53
2023-04-22T21:11:04.348Z,100516.72
2023-04-22T21:13:32.037Z,100518.41
2023-04-22T21:16:02.741Z,100521.13
2023-04-22T21:18:33.603Z,100517.13
2023-04-22T21:21:03.880Z,100515.00
2023-04-22T21:23:33.067Z,100520.03
2023-04-22T21:26:02.635Z,100517.31
2023-04-22T21:28:30.348Z,100523.66
2023-04-22T21:30:58.000Z,100520.59
2023-04-22T21:33:25.332Z,100521.78
2023-04-22T21:35:52.909Z,100520.69
2023-04-22T21:38:20.173Z,100523.31
2023-04-22T21:40:48.594Z,100523.75
2023-04-22T21:43:15.585Z,100520.47
2023-04-22T21:45:42.453Z,100525.22
2023-04-22T21:48:09.413Z,100524.66
2023-04-22T21:50:36.597Z,100523.06
2023-04-22T21:53:03.611Z,100522.47
2023-04-22T21:55:30.593Z,100528.03
2023-04-22T21:57:58.830Z,100517.31
2023-04-22T22:00:27.082Z,100519.44
2023-04-22T22:02:54.269Z,100526.44
2023-04-22T22:05:21.267Z,100523.97
2023-04-22T22:07:48.909Z,100524.47
2023-04-22T22:10:22.371Z,100522.81
2023-04-22T22:12:49.842Z,100526.97
2023-04-22T22:15:18.429Z,100532.56
2023-04-22T22:17:45.978Z,100527.97
2023-04-22T22:20:20.109Z,100524.56
2023-04-22T22:22:47.864Z,100533.97
2023-04-22T22:25:16.377Z,100528.31
2023-04-22T22:27:46.611Z,100529.88
2023-04-22T22:30:14.817Z,100532.22
2023-04-22T22:32:43.199Z,100531.31
2023-04-22T22:35:11.003Z,100532.41
2023-04-22T22:37:38.001Z,100527.53
2023-04-22T22:40:06.584Z,100521.69
2023-04-22T22:42:33.523Z,100522.66
2023-04-22T22:45:00.547Z,100521.06
2023-04-22T22:47:27.623Z,100522.03
2023-04-22T22:49:56.183Z,100520.19
2023-04-22T22:52:23.187Z,100524.09
2023-04-22T22:54:50.341Z,100519.00
2023-04-22T22:57:17.301Z,100521.13
2023-04-22T22:59:44.201Z,100512.59
2023-04-22T23:02:11.625Z,100510.72
2023-04-22T23:04:39.723Z,100515.25
2023-04-22T23:07:08.261Z,100513.16
2023-04-22T23:09:35.269Z,100511.53
2023-04-22T23:12:02.721Z,100517.38
2023-04-22T23:14:29.940Z,100505.56
2023-04-22T23:16:56.912Z,100515.69
2023-04-22T23:19:25.614Z,100512.75
2023-04-22T23:21:56.231Z,100517.22
2023-04-22T23:24:25.458Z,100517.16
2023-04-22T23:26:53.100Z,100517.81
2023-04-22T23:29:21.009Z,100520.03
2023-04-22T23:31:51.050Z,100521.50
2023-04-22T23:34:23.776Z,100531.47
2023-04-22T23:36:52.804Z,100531.78
2023-04-22T23:39:19.883Z,100542.50
2023-04-22T23:41:48.188Z,100532.63
2023-04-22T23:44:15.221Z,100538.75
2023-04-22T23:46:42.343Z,100539.56
2023-04-22T23:49:09.319Z,100548.66
2023-04-22T23:51:36.775Z,100547.50
2023-04-22T23:54:03.932Z,100550.69
2023-04-22T23:56:31.704Z,100545.81
2023-04-22T23:59:00.723Z,100552.47
